Thunder radar more information blitzortung!


Radar de pluja more information rain snow radar


Visita la nostra xarxa de llocs de meteo:

Template documentation
and downloads

And another site



No particular awareness of the weather is required.    There are no Weather-warnings

Pagina Historial Weather Underground text

Diari Resum Novembre 9, 2017 Unitats:  Imperial    Mètric   Tant
« Previous Dia
SegĂźent Dia »
Diari Setmana Mensual Anual Personalitzada
  Maxima: Minima: Media:
Temperatura: TemperatureC °F 3.7 °F 8.8 °F
Punt de rosada: DewpointC °F -2.5 °F 0.9 °F
Humitat: Humidity % 47 % 58 %
Wind Speed: WindSpeedKMH mph 0.0 mph 3.2 mph
RĂ fegues de vent: WindSpeedGustKMH mph - -
Vent:- - ESE
Pression baro: PressurehPa in 1021.9 in -
Precipitacions: 0.0 in    
Historical Graphs
 
 
Dades de taula per Novembre 9, 2017
Temps Temperatura Punt de rosada Pression baro Vent Wind Speed RĂ fegues de vent Humitat Rainfall Rate (Hourly)
TemperatureC °F DewpointC °F PressurehPa in Calm     Humidity % HourlyPrecipMM in
00:04 7.9 °F -0.6 °F 1022.9 in WSW 5.6 mph 5.6 mph 55 % 0.0 in
00:05 3.9 °F -2.5 °F 1023.9 in NW 1.6 mph 4.8 mph 63 % 0.0 in
00:15 3.9 °F -2.3 °F 1023.9 in NW 1.6 mph 4.8 mph 64 % 0.0 in
00:25 4.0 °F -2.4 °F 1023.9 in North 1.6 mph 4.8 mph 63 % 0.0 in
00:35 4.0 °F -2.2 °F 1023.9 in NNE 1.6 mph 4.8 mph 64 % 0.0 in
00:45 4.0 °F -2.4 °F 1022.9 in North 1.6 mph 3.2 mph 63 % 0.0 in
00:55 3.9 °F -2.3 °F 1022.9 in NW 1.6 mph 3.2 mph 64 % 0.0 in
01:05 3.8 °F -2.4 °F 1022.9 in Calm   1.6 mph 64 % 0.0 in
01:15 3.7 °F -2.5 °F 1022.9 in SW 1.6 mph 1.6 mph 64 % 0.0 in
01:25 3.7 °F -2.5 °F 1022.9 in WSW 1.6 mph 3.2 mph 64 % 0.0 in
01:35 3.7 °F -2.5 °F 1022.9 in West 1.6 mph 1.6 mph 64 % 0.0 in
01:45 3.7 °F -2.3 °F 1022.9 in WNW 1.6 mph   65 % 0.0 in
01:55 4.0 °F -2.0 °F 1023.9 in NW 1.6 mph 1.6 mph 65 % 0.0 in
02:05 4.5 °F -1.5 °F 1023.9 in NNE 1.6 mph 3.2 mph 65 % 0.0 in
02:15 4.8 °F -1.4 °F 1023.9 in NE 1.6 mph 4.8 mph 64 % 0.0 in
02:25 5.0 °F -1.3 °F 1023.9 in NE 1.6 mph 3.2 mph 64 % 0.0 in
02:35 5.2 °F -1.3 °F 1023.9 in NNE 1.6 mph 6.4 mph 63 % 0.0 in
02:45 5.5 °F -1.0 °F 1023.9 in NNE 3.2 mph 8.0 mph 63 % 0.0 in
02:55 5.8 °F -0.7 °F 1022.9 in NNE 3.2 mph 6.4 mph 63 % 0.0 in
03:05 6.1 °F -0.7 °F 1022.9 in NE 8.0 mph 9.7 mph 62 % 0.0 in
03:15 6.4 °F -0.3 °F 1023.9 in NE 4.8 mph 6.4 mph 62 % 0.0 in
03:35 7.5 °F 0.4 °F 1023.9 in NE 3.2 mph 4.8 mph 61 % 0.0 in
03:45 8.0 °F 0.7 °F 1023.9 in NNE 1.6 mph 4.8 mph 60 % 0.0 in
03:55 7.8 °F 0.3 °F 1023.9 in NNE 4.8 mph 6.4 mph 59 % 0.0 in
04:05 7.9 °F 0.4 °F 1023.9 in NE 4.8 mph 8.0 mph 59 % 0.0 in
04:15 8.3 °F 0.7 °F 1023.9 in ENE 3.2 mph 4.8 mph 59 % 0.0 in
04:25 8.4 °F 0.6 °F 1023.9 in NE 3.2 mph 9.7 mph 58 % 0.0 in
04:35 8.5 °F 0.4 °F 1023.9 in NNE 4.8 mph 9.7 mph 57 % 0.0 in
04:45 9.0 °F 1.2 °F 1023.9 in NNE 1.6 mph 6.4 mph 58 % 0.0 in
04:50 8.8 °F 0.7 °F 1023.9 in NNE 4.8 mph 6.4 mph 57 % 0.0 in
10:49 8.8 °F 0.7 °F 1023.9 in NE 5.6 mph 7.6 mph 57 % 0.0 in
10:50 8.9 °F 0.8 °F 1023.9 in North 5.6 mph 5.6 mph 57 % 0.0 in
10:55 9.2 °F 1.1 °F 1023.9 in North 5.6 mph 5.6 mph 57 % 0.0 in
11:00 9.5 °F 1.4 °F 1023.9 in WNW 6.1 mph 6.1 mph 57 % 0.0 in
11:05 9.6 °F 1.5 °F 1023.9 in NNE 7.4 mph 7.4 mph 57 % 0.0 in
11:10 9.3 °F 0.9 °F 1023.9 in ESE 5.6 mph 5.6 mph 56 % 0.0 in
11:15 9.4 °F 1.1 °F 1023.9 in NE 5.6 mph 5.6 mph 56 % 0.0 in
11:20 9.9 °F 1.5 °F 1023.9 in NE 3.7 mph 3.7 mph 56 % 0.0 in
11:25 9.8 °F 1.2 °F 1023.9 in East 7.6 mph 7.6 mph 55 % 0.0 in
11:30 9.9 °F 1.3 °F 1023.9 in NE 7.4 mph 7.4 mph 55 % 0.0 in
11:35 9.9 °F 1.3 °F 1023.9 in WNW 5.6 mph 5.6 mph 55 % 0.0 in
11:40 9.8 °F 1.2 °F 1023.9 in NNE 5.6 mph 5.6 mph 55 % 0.0 in
11:45 10.0 °F 1.4 °F 1023.9 in ENE 7.4 mph 7.4 mph 55 % 0.0 in
11:50 10.4 °F 1.7 °F 1023.9 in NE 5.0 mph 5.0 mph 55 % 0.0 in
11:55 10.2 °F 1.3 °F 1023.9 in ESE 5.6 mph 5.6 mph 54 % 0.0 in
12:00 10.3 °F 1.4 °F 1023.9 in East 5.6 mph 5.6 mph 54 % 0.0 in
12:05 10.6 °F 1.7 °F 1023.9 in North 5.3 mph 5.3 mph 54 % 0.0 in
12:10 11.1 °F 2.4 °F 1023.9 in NW 3.9 mph 3.9 mph 55 % 0.0 in
12:15 11.1 °F 2.1 °F 1023.9 in WSW 4.7 mph 4.7 mph 54 % 0.0 in
12:20 11.1 °F 2.1 °F 1022.9 in NNE 9.3 mph 9.3 mph 54 % 0.0 in
12:25 11.2 °F 2.2 °F 1022.9 in ENE 5.6 mph 5.6 mph 54 % 0.0 in
12:30 11.2 °F 2.2 °F 1022.9 in NNE 9.3 mph 9.3 mph 54 % 0.0 in
12:35 11.5 °F 2.5 °F 1022.9 in ESE 3.9 mph   54 % 0.0 in
12:40 11.9 °F 2.6 °F 1022.9 in ESE 5.6 mph 5.6 mph 53 % 0.0 in
12:45 12.0 °F 2.7 °F 1022.9 in ENE 3.9 mph 4.7 mph 53 % 0.0 in
12:50 12.0 °F 2.7 °F 1022.9 in ESE 5.6 mph 5.6 mph 53 % 0.0 in
12:55 12.0 °F 2.7 °F 1022.9 in ENE 5.8 mph 5.8 mph 53 % 0.0 in
13:00 11.8 °F 2.3 °F 1022.9 in SSE 3.7 mph 3.7 mph 52 % 0.0 in
13:01 12.1 °F 2.8 °F 1022.9 in ESE 3.7 mph 3.7 mph 53 % 0.0 in
13:06 12.3 °F 3.0 °F 1021.9 in NNE 5.3 mph 5.3 mph 53 % 0.0 in
13:11 12.3 °F 3.0 °F 1021.9 in ESE 3.7 mph   53 % 0.0 in
13:16 12.1 °F 2.6 °F 1021.9 in ENE 7.4 mph 7.4 mph 52 % 0.0 in
13:21 12.3 °F 2.7 °F 1021.9 in ESE 5.6 mph 5.6 mph 52 % 0.0 in
13:26 12.5 °F 2.9 °F 1021.9 in ENE 5.6 mph 5.6 mph 52 % 0.0 in
13:31 12.4 °F 2.8 °F 1021.9 in ESE 5.8 mph 5.8 mph 52 % 0.0 in
13:33 12.3 °F 2.7 °F 1021.9 in ESE 5.6 mph 5.6 mph 52 % 0.0 in
13:38 12.5 °F 2.9 °F 1021.9 in ESE 3.7 mph 3.7 mph 52 % 0.0 in
13:43 12.8 °F 3.2 °F 1021.9 in East 4.2 mph 4.2 mph 52 % 0.0 in
13:48 12.9 °F 3.3 °F 1021.9 in NNE 4.7 mph 4.7 mph 52 % 0.0 in
13:53 13.1 °F 3.4 °F 1021.9 in SW 3.7 mph 3.7 mph 52 % 0.0 in
13:58 13.2 °F 3.6 °F 1021.9 in East 4.7 mph 4.7 mph 52 % 0.0 in
14:03 13.3 °F 3.4 °F 1021.9 in ESE 5.6 mph 5.6 mph 51 % 0.0 in
14:08 13.1 °F 3.2 °F 1021.9 in East 9.3 mph 9.3 mph 51 % 0.0 in
14:13 13.1 °F 3.2 °F 1021.9 in NNE 5.6 mph 5.6 mph 51 % 0.0 in
14:18 13.1 °F 2.9 °F 1021.9 in ESE 9.3 mph 9.3 mph 50 % 0.0 in
14:23 13.1 °F 2.9 °F 1021.9 in East 6.9 mph 6.9 mph 50 % 0.0 in
14:28 13.1 °F 2.9 °F 1021.9 in ESE 5.6 mph 5.6 mph 50 % 0.0 in
14:33 13.1 °F 2.9 °F 1021.9 in NNE 5.8 mph 5.8 mph 50 % 0.0 in
14:38 13.4 °F 3.4 °F 1021.9 in NE 7.4 mph 7.4 mph 51 % 0.0 in
14:43 13.5 °F 3.3 °F 1021.9 in East 9.3 mph 9.3 mph 50 % 0.0 in
14:48 13.4 °F 3.2 °F 1021.9 in East 7.4 mph 7.4 mph 50 % 0.0 in
14:53 13.6 °F 3.4 °F 1021.9 in ESE 7.4 mph 7.4 mph 50 % 0.0 in
14:58 13.6 °F 3.4 °F 1021.9 in ENE 11.1 mph 11.1 mph 50 % 0.0 in
15:03 13.6 °F 3.4 °F 1021.9 in NE 13.0 mph 13.0 mph 50 % 0.0 in
15:08 13.7 °F 3.4 °F 1021.9 in NE 7.4 mph 7.4 mph 50 % 0.0 in
15:13 13.9 °F 3.3 °F 1021.9 in ENE 7.4 mph 7.4 mph 49 % 0.0 in
15:18 13.7 °F 3.2 °F 1021.9 in ESE 7.4 mph 7.4 mph 49 % 0.0 in
15:23 13.8 °F 2.9 °F 1021.9 in WSW 5.6 mph 5.6 mph 48 % 0.0 in
15:28 14.1 °F 3.2 °F 1021.9 in SSE 3.7 mph 3.7 mph 48 % 0.0 in
15:33 13.9 °F 3.1 °F 1021.9 in SE 7.4 mph 7.4 mph 48 % 0.0 in
15:38 13.6 °F 2.8 °F 1021.9 in ESE 9.3 mph 9.3 mph 48 % 0.0 in
15:43 13.7 °F 2.9 °F 1021.9 in ESE 9.3 mph 9.3 mph 48 % 0.0 in
15:48 13.6 °F 2.5 °F 1021.9 in ESE 4.2 mph 4.2 mph 47 % 0.0 in
15:53 13.7 °F 2.6 °F 1021.9 in ESE 6.4 mph 6.4 mph 47 % 0.0 in
15:58 13.9 °F 3.1 °F 1021.9 in East 4.7 mph 4.7 mph 48 % 0.0 in
16:03 13.9 °F 2.8 °F 1021.9 in ESE 5.6 mph 5.6 mph 47 % 0.0 in
16:08 13.7 °F 2.6 °F 1021.9 in SSE 3.7 mph 3.7 mph 47 % 0.0 in
16:13 13.9 °F 3.1 °F 1021.9 in WSW 3.7 mph 3.7 mph 48 % 0.0 in
16:18 13.9 °F 3.1 °F 1021.9 in WSW 5.6 mph 5.6 mph 48 % 0.0 in
16:23 13.9 °F 3.1 °F 1021.9 in Calm     48 % 0.0 in
16:28 13.8 °F 2.7 °F 1021.9 in SE 2.6 mph   47 % 0.0 in
16:33 13.5 °F 2.4 °F 1021.9 in ESE 5.6 mph 5.6 mph 47 % 0.0 in
16:38 13.2 °F 2.4 °F 1021.9 in SE 5.6 mph 5.6 mph 48 % 0.0 in
16:43 13.0 °F 2.2 °F 1021.9 in ESE 6.9 mph 6.9 mph 48 % 0.0 in
16:48 12.8 °F 2.1 °F 1021.9 in SE 5.6 mph 5.6 mph 48 % 0.0 in
16:53 12.8 °F 2.3 °F 1022.9 in South 5.6 mph 5.6 mph 49 % 0.0 in
16:58 12.7 °F 2.2 °F 1022.9 in NNE 3.7 mph 3.7 mph 49 % 0.0 in
17:03 12.6 °F 2.2 °F 1022.9 in NE 2.3 mph   49 % 0.0 in
17:08 12.4 °F 2.3 °F 1022.9 in NNE 1.9 mph 1.9 mph 50 % 0.0 in
17:13 12.3 °F 2.2 °F 1022.9 in Calm     50 % 0.0 in
17:18 12.2 °F 2.1 °F 1022.9 in Calm     50 % 0.0 in
17:23 12.1 °F 2.0 °F 1022.9 in NNE 1.9 mph   50 % 0.0 in
17:28 12.0 °F 1.9 °F 1022.9 in NNW 3.7 mph 3.7 mph 50 % 0.0 in
17:33 11.8 °F 1.7 °F 1022.9 in NNW 1.9 mph   50 % 0.0 in
17:38 11.6 °F 1.5 °F 1022.9 in Calm     50 % 0.0 in
17:43 11.6 °F 1.5 °F 1022.9 in NE 2.6 mph 2.6 mph 50 % 0.0 in
17:48 11.3 °F 1.5 °F 1022.9 in NNE 4.2 mph 4.2 mph 51 % 0.0 in
17:53 11.1 °F 1.3 °F 1022.9 in NNE 3.9 mph 3.9 mph 51 % 0.0 in
17:58 11.0 °F 1.2 °F 1022.9 in NNE 5.6 mph 5.6 mph 51 % 0.0 in
18:03 11.2 °F 1.4 °F 1022.9 in NNE 7.4 mph 7.4 mph 51 % 0.0 in
18:08 11.1 °F 1.3 °F 1022.9 in NNE 7.4 mph 7.4 mph 51 % 0.0 in
18:13 11.0 °F 1.2 °F 1022.9 in NE 5.6 mph 5.6 mph 51 % 0.0 in
18:15 5.1 °F -0.3 °F 1026.0 in Calm   4.8 mph 68 % 0.0 in
18:18 10.9 °F 1.4 °F 1022.9 in NNE 3.7 mph 3.7 mph 52 % 0.0 in
18:23 10.8 °F 1.3 °F 1022.9 in Calm     52 % 0.0 in
18:25 5.0 °F -0.2 °F 1026.0 in South 1.6 mph 1.6 mph 69 % 0.0 in
18:28 10.6 °F 1.2 °F 1022.9 in NNW 3.5 mph 3.5 mph 52 % 0.0 in
18:33 10.4 °F 0.9 °F 1022.9 in NNE 3.7 mph 3.7 mph 52 % 0.0 in
18:35 5.0 °F -0.2 °F 1026.0 in Calm   1.6 mph 69 % 0.0 in
18:38 10.3 °F 0.9 °F 1022.9 in NE 3.7 mph 3.7 mph 52 % 0.0 in
18:43 10.1 °F 0.7 °F 1022.9 in NNE 5.6 mph 5.6 mph 52 % 0.0 in
18:45 5.1 °F -0.1 °F 1026.0 in Calm     69 % 0.0 in
18:48 10.0 °F 0.8 °F 1022.9 in ENE 5.6 mph 5.6 mph 53 % 0.0 in
18:53 10.0 °F 0.8 °F 1023.9 in NNE 3.7 mph 3.7 mph 53 % 0.0 in
18:55 4.9 °F -0.1 °F 1026.0 in Calm     70 % 0.0 in
18:58 9.9 °F 0.8 °F 1023.9 in NNW 1.9 mph   53 % 0.0 in
19:03 9.7 °F 0.6 °F 1023.9 in NNW 1.9 mph   53 % 0.0 in
19:05 4.8 °F -0.4 °F 1026.0 in NNW 1.6 mph 3.2 mph 69 % 0.0 in
19:08 9.6 °F 0.5 °F 1023.9 in NNE 3.7 mph   53 % 0.0 in
19:13 9.4 °F 0.6 °F 1023.9 in NNE 3.9 mph 3.9 mph 54 % 0.0 in
19:15 4.7 °F -0.3 °F 1026.0 in Calm   3.2 mph 70 % 0.0 in
19:18 9.3 °F 0.4 °F 1023.9 in NNE 1.9 mph 1.9 mph 54 % 0.0 in
19:23 9.2 °F 0.4 °F 1023.9 in North 1.9 mph   54 % 0.0 in
19:25 4.5 °F -0.5 °F 1026.0 in Calm   1.6 mph 70 % 0.0 in
19:28 9.1 °F 0.3 °F 1023.9 in NNW 1.9 mph   54 % 0.0 in
19:33 9.0 °F 0.4 °F 1023.9 in NNW 1.9 mph 1.9 mph 55 % 0.0 in
19:35 4.3 °F -0.9 °F 1026.0 in Calm   3.2 mph 69 % 0.0 in
19:38 9.0 °F 0.4 °F 1022.9 in NNW 1.9 mph   55 % 0.0 in
19:43 8.9 °F 0.3 °F 1022.9 in Calm     55 % 0.0 in
19:45 4.4 °F -0.8 °F 1026.0 in SSW 1.6 mph 3.2 mph 69 % 0.0 in
19:48 8.9 °F 0.3 °F 1022.9 in NE 3.7 mph 3.7 mph 55 % 0.0 in
19:53 8.8 °F 0.5 °F 1022.9 in Calm     56 % 0.0 in
19:55 4.3 °F -0.7 °F 1026.0 in Calm   1.6 mph 70 % 0.0 in
19:58 8.8 °F 0.5 °F 1022.9 in North 1.9 mph   56 % 0.0 in
20:03 8.7 °F 0.4 °F 1022.9 in Calm     56 % 0.0 in
20:05 4.4 °F -0.6 °F 1026.0 in NNE 1.6 mph 3.2 mph 70 % 0.0 in
20:08 8.7 °F 0.4 °F 1023.9 in Calm     56 % 0.0 in
20:13 8.5 °F 0.4 °F 1023.9 in NNW 1.9 mph   57 % 0.0 in
20:15 4.5 °F -0.5 °F 1024.9 in Calm   1.6 mph 70 % 0.0 in
20:18 8.5 °F 0.4 °F 1023.9 in NNE 2.6 mph   57 % 0.0 in
20:23 8.5 °F 0.4 °F 1023.9 in Calm     57 % 0.0 in
20:25 4.5 °F -0.5 °F 1024.9 in Calm   1.6 mph 70 % 0.0 in
20:28 8.5 °F 0.4 °F 1023.9 in NNE 3.7 mph 3.7 mph 57 % 0.0 in
20:33 8.6 °F 0.8 °F 1023.9 in Calm     58 % 0.0 in
20:35 4.5 °F -0.5 °F 1024.9 in NW 1.6 mph 3.2 mph 70 % 0.0 in
20:38 8.6 °F 0.8 °F 1023.9 in NE 1.9 mph 1.9 mph 58 % 0.0 in
20:43 8.5 °F 0.7 °F 1023.9 in Calm     58 % 0.0 in
20:45 4.5 °F -0.7 °F 1026.0 in North 1.6 mph 3.2 mph 69 % 0.0 in
20:48 8.3 °F 0.7 °F 1023.9 in WNW 1.9 mph   59 % 0.0 in
20:53 8.2 °F 0.7 °F 1023.9 in Calm     59 % 0.0 in
20:55 4.7 °F -0.5 °F 1026.0 in NNE 1.6 mph 1.6 mph 69 % 0.0 in
20:58 8.1 °F 0.6 °F 1023.9 in Calm     59 % 0.0 in
21:03 8.0 °F 0.7 °F 1023.9 in Calm     60 % 0.0 in
21:05 4.7 °F -0.5 °F 1026.0 in North 1.6 mph 3.2 mph 69 % 0.0 in
21:08 7.9 °F 0.6 °F 1023.9 in WNW 1.9 mph 1.9 mph 60 % 0.0 in
21:13 7.9 °F 0.6 °F 1023.9 in WNW 3.7 mph 3.7 mph 60 % 0.0 in
21:15 4.6 °F -0.6 °F 1024.9 in Calm   1.6 mph 69 % 0.0 in
21:18 7.9 °F 0.6 °F 1023.9 in Calm     60 % 0.0 in
21:23 7.9 °F 0.6 °F 1023.9 in Calm     60 % 0.0 in
21:25 4.6 °F -0.8 °F 1024.9 in Calm   3.2 mph 68 % 0.0 in
21:28 7.8 °F 0.7 °F 1023.9 in Calm     61 % 0.0 in
21:33 8.0 °F 0.9 °F 1023.9 in ESE 5.6 mph 5.6 mph 61 % 0.0 in
21:35 4.6 °F -0.8 °F 1024.9 in West 1.6 mph 3.2 mph 68 % 0.0 in
21:38 8.0 °F 1.2 °F 1023.9 in East 1.9 mph   62 % 0.0 in
21:43 8.0 °F 1.2 °F 1023.9 in ESE 3.7 mph 3.7 mph 62 % 0.0 in
21:45 4.5 °F -0.9 °F 1024.9 in West 1.6 mph 1.6 mph 68 % 0.0 in
21:48 7.9 °F 1.1 °F 1023.9 in Calm     62 % 0.0 in
21:53 7.9 °F 1.1 °F 1024.9 in Calm     62 % 0.0 in
21:58 7.8 °F 0.9 °F 1024.9 in Calm     62 % 0.0 in
22:03 7.6 °F 0.6 °F 1024.9 in Calm     61 % 0.0 in
22:05 4.5 °F -1.1 °F 1024.9 in West 3.2 mph 4.8 mph 67 % 0.0 in
22:08 7.6 °F 0.6 °F 1024.9 in Calm     61 % 0.0 in
22:13 7.5 °F 0.7 °F 1024.9 in Calm     62 % 0.0 in
22:15 4.4 °F -1.0 °F 1026.0 in West 1.6 mph 3.2 mph 68 % 0.0 in
22:18 7.5 °F 0.7 °F 1024.9 in Calm     62 % 0.0 in
22:23 7.4 °F 0.8 °F 1024.9 in Calm     63 % 0.0 in
22:24 7.4 °F 0.8 °F 1024.9 in Calm     63 % 0.0 in
22:25 4.5 °F -0.9 °F 1026.0 in NNW 1.6 mph 3.2 mph 68 % 0.0 in
22:29 7.3 °F 0.7 °F 1024.9 in Calm     63 % 0.0 in
22:34 7.2 °F 0.6 °F 1024.9 in ENE 1.9 mph 1.9 mph 63 % 0.0 in
22:35 4.4 °F -1.0 °F 1026.0 in Calm   3.2 mph 68 % 0.0 in
22:39 7.0 °F 0.4 °F 1026.0 in NNE 1.9 mph 1.9 mph 63 % 0.0 in
22:44 6.8 °F 0.4 °F 1026.0 in Calm     64 % 0.0 in
22:45 4.4 °F -1.0 °F 1026.0 in Calm   1.6 mph 68 % 0.0 in
22:49 6.6 °F 0.3 °F 1026.0 in ESE 3.7 mph 3.7 mph 64 % 0.0 in
22:54 6.5 °F 0.2 °F 1024.9 in South 1.9 mph 1.9 mph 64 % 0.0 in
22:55 4.4 °F -1.0 °F 1026.0 in NNW 3.2 mph 4.8 mph 68 % 0.0 in
22:59 6.4 °F 0.1 °F 1024.9 in Calm     64 % 0.0 in
23:04 6.2 °F 0.1 °F 1024.9 in Calm     65 % 0.0 in
23:05 4.4 °F -1.0 °F 1026.0 in NNE 1.6 mph 3.2 mph 68 % 0.0 in
23:09 6.0 °F -0.1 °F 1026.0 in Calm     65 % 0.0 in
23:14 5.8 °F -0.5 °F 1026.0 in SW 3.9 mph 3.9 mph 64 % 0.0 in
23:15 4.4 °F -1.0 °F 1026.0 in NE 3.2 mph 4.8 mph 68 % 0.0 in
23:19 5.7 °F -0.6 °F 1026.0 in SW 3.9 mph 3.9 mph 64 % 0.0 in
23:24 5.5 °F -0.8 °F 1026.0 in SW 3.7 mph 3.7 mph 64 % 0.0 in
23:25 4.3 °F -1.1 °F 1026.0 in NNE 1.6 mph 6.4 mph 68 % 0.0 in
23:29 5.5 °F -0.6 °F 1026.0 in SSW 3.7 mph 3.7 mph 65 % 0.0 in
23:34 5.4 °F -0.4 °F 1026.0 in Calm     66 % 0.0 in
23:35 4.4 °F -1.0 °F 1026.0 in North 1.6 mph 3.2 mph 68 % 0.0 in
23:39 5.3 °F -0.3 °F 1024.9 in ENE 3.7 mph 3.7 mph 67 % 0.0 in
23:44 5.3 °F -0.3 °F 1024.9 in Calm     67 % 0.0 in
23:45 4.4 °F -1.0 °F 1026.0 in NE 1.6 mph 3.2 mph 68 % 0.0 in
23:49 5.3 °F -0.3 °F 1024.9 in Calm     67 % 0.0 in
23:54 5.2 °F -0.2 °F 1026.0 in Calm     68 % 0.0 in
23:55 4.4 °F -1.0 °F 1026.0 in NE 3.2 mph 3.2 mph 68 % 0.0 in
23:59 5.2 °F -0.2 °F 1026.0 in Calm     68 % 0.0 in
Meteo Sesrovires
Elogis d' Weather Underground - 3.75 mb

Guio original per  Jim McMurry - jmcmurry@mwt.net Adaptat per a la plantilla per  Wim van der Kuil - Leuven-Template.eu

Trobareu la nostra informacio del temps tambe a:

Weather Underground

AWEKAS